Time;durP1;ratioP1;P1;durP2;ratioP2;P2;SDS_P1;SDS_P2;PMS_P1;PMS_P2;Temp;Humidity;BMP_temperature;BMP_pressure;BME280_temperature;BME280_humidity;BME280_pressure;Samples;Min_cycle;Max_cycle;Signal;HPM_P1;HPM_P2
2024/04/14 00:00:09;;;;;;;0.95;0.40;;;;;;;;;;5386006;26;20014;-59
2024/04/14 00:02:35;;;;;;;2.20;0.60;;;;;;;;;;5381813;26;20000;-58
2024/04/14 00:05:02;;;;;;;1.23;1.10;;;;;;;;;;5383156;26;20502;-56
2024/04/14 00:07:28;;;;;;;0.43;0.30;;;;;;;;;;5374722;26;20073;-56
2024/04/14 00:09:55;;;;;;;3.42;0.55;;;;;;;;;;5379187;26;20044;-58
2024/04/14 00:12:21;;;;;;;2.40;0.50;;;;;;;;;;5377974;26;20004;-60
2024/04/14 00:14:48;;;;;;;4.78;0.50;;;;;;;;;;5382536;26;20007;-56
2024/04/14 00:17:15;;;;;;;1.30;0.70;;;;;;;;;;5380559;26;20528;-55
2024/04/14 00:19:41;;;;;;;0.30;0.30;;;;;;;;;;5383177;26;20047;-55
2024/04/14 00:22:08;;;;;;;4.38;0.50;;;;;;;;;;5384955;26;20028;-54
2024/04/14 00:24:34;;;;;;;6.57;0.90;;;;;;;;;;5382834;26;20046;-54
2024/04/14 00:27:01;;;;;;;4.88;0.68;;;;;;;;;;5381335;26;20003;-55
2024/04/14 00:29:28;;;;;;;3.75;0.60;;;;;;;;;;5376295;26;20000;-59
2024/04/14 00:31:54;;;;;;;3.42;0.32;;;;;;;;;;5384294;26;20003;-57
2024/04/14 00:34:21;;;;;;;3.17;0.70;;;;;;;;;;5380963;26;20014;-59
2024/04/14 00:36:48;;;;;;;5.32;0.75;;;;;;;;;;5360502;26;20226;-59
2024/04/14 00:39:14;;;;;;;6.28;1.25;;;;;;;;;;5381722;26;20739;-55
2024/04/14 00:41:42;;;;;;;6.43;1.20;;;;;;;;;;5380620;26;20008;-55
2024/04/14 00:44:09;;;;;;;4.10;0.60;;;;;;;;;;5381401;26;20010;-57
2024/04/14 00:46:35;;;;;;;1.80;0.80;;;;;;;;;;5381162;26;20007;-58
2024/04/14 00:49:03;;;;;;;3.80;0.88;;;;;;;;;;5381394;26;20340;-54
2024/04/14 00:51:31;;;;;;;6.38;0.60;;;;;;;;;;5374969;26;20934;-60
2024/04/14 00:53:58;;;;;;;3.03;0.60;;;;;;;;;;5395929;26;20761;-57
2024/04/14 00:56:27;;;;;;;1.73;0.40;;;;;;;;;;5374593;26;20015;-50
2024/04/14 00:58:53;;;;;;;3.55;0.73;;;;;;;;;;5380440;26;20094;-53
2024/04/14 01:01:21;;;;;;;6.50;0.73;;;;;;;;;;5377177;26;20008;-63
2024/04/14 01:03:49;;;;;;;5.97;0.90;;;;;;;;;;5383566;26;20390;-56
2024/04/14 01:06:16;;;;;;;4.30;0.80;;;;;;;;;;5385638;26;20395;-57
2024/04/14 01:08:44;;;;;;;3.60;0.60;;;;;;;;;;5381411;26;20068;-57
2024/04/14 01:11:11;;;;;;;1.58;1.08;;;;;;;;;;5391087;26;20056;-58
2024/04/14 01:13:38;;;;;;;3.67;0.75;;;;;;;;;;5380364;26;20004;-56
2024/04/14 01:16:05;;;;;;;8.90;0.90;;;;;;;;;;5382457;26;20040;-57
2024/04/14 01:18:31;;;;;;;10.30;1.77;;;;;;;;;;5379171;26;20029;-57
2024/04/14 01:20:58;;;;;;;7.68;0.70;;;;;;;;;;5380965;26;20074;-56
2024/04/14 01:23:26;;;;;;;3.38;1.95;;;;;;;;;;5381633;26;20408;-60
2024/04/14 01:25:52;;;;;;;7.53;0.90;;;;;;;;;;5395954;26;20006;-57
2024/04/14 01:28:19;;;;;;;7.20;1.10;;;;;;;;;;5389004;26;20008;-56
2024/04/14 01:30:46;;;;;;;5.75;1.30;;;;;;;;;;5378066;26;20332;-56
2024/04/14 01:33:15;;;;;;;8.13;1.42;;;;;;;;;;5380194;26;20018;-57
2024/04/14 01:35:43;;;;;;;4.75;0.63;;;;;;;;;;5381446;26;20011;-56
2024/04/14 01:38:10;;;;;;;7.18;1.17;;;;;;;;;;5380802;26;20011;-56
2024/04/14 01:40:36;;;;;;;7.65;0.80;;;;;;;;;;5387399;26;20015;-57
2024/04/14 01:43:03;;;;;;;9.80;1.48;;;;;;;;;;5375852;26;20014;-59
2024/04/14 01:45:30;;;;;;;4.25;0.90;;;;;;;;;;5389489;26;20000;-59
2024/04/14 01:47:56;;;;;;;11.43;1.30;;;;;;;;;;5371420;26;20122;-58
2024/04/14 01:50:23;;;;;;;11.35;1.10;;;;;;;;;;5380648;26;20000;-60
2024/04/14 01:52:50;;;;;;;11.45;1.38;;;;;;;;;;5376402;26;20036;-57
2024/04/14 01:55:16;;;;;;;9.90;1.00;;;;;;;;;;5379731;26;20000;-58
2024/04/14 01:57:43;;;;;;;4.90;0.95;;;;;;;;;;5410030;26;19996;-57
2024/04/14 02:00:10;;;;;;;7.38;1.80;;;;;;;;;;5382964;26;20015;-58
2024/04/14 02:02:36;;;;;;;7.78;1.10;;;;;;;;;;5383454;26;20007;-57
2024/04/14 02:05:03;;;;;;;11.15;2.28;;;;;;;;;;5383654;26;21858;-58
2024/04/14 02:07:29;;;;;;;11.25;1.95;;;;;;;;;;5381062;26;20665;-63
2024/04/14 02:09:56;;;;;;;14.65;1.40;;;;;;;;;;5384279;26;20449;-60
2024/04/14 02:12:23;;;;;;;9.82;1.42;;;;;;;;;;5375297;26;20004;-59
2024/04/14 02:14:49;;;;;;;11.68;0.98;;;;;;;;;;5380518;26;20011;-57
2024/04/14 02:17:16;;;;;;;10.75;1.52;;;;;;;;;;5380866;26;20007;-60
2024/04/14 02:19:43;;;;;;;10.05;1.50;;;;;;;;;;5375080;26;20126;-57
2024/04/14 02:22:29;;;;;;;6.75;1.00;;;;;;;;;;5373900;26;20098;-57
2024/04/14 02:24:56;;;;;;;4.07;1.05;;;;;;;;;;5366883;26;20458;-60
2024/04/14 02:27:22;;;;;;;9.13;2.50;;;;;;;;;;5366014;26;20014;-56
2024/04/14 02:29:49;;;;;;;4.22;1.77;;;;;;;;;;5376856;26;20035;-58
2024/04/14 02:32:16;;;;;;;8.60;2.20;;;;;;;;;;5371842;26;20081;-57
2024/04/14 02:34:43;;;;;;;3.85;0.70;;;;;;;;;;5348974;26;20064;-60
2024/04/14 02:37:10;;;;;;;6.18;0.88;;;;;;;;;;5371574;26;20497;-56
2024/04/14 02:39:37;;;;;;;4.07;0.82;;;;;;;;;;5373410;26;20409;-56
2024/04/14 02:42:04;;;;;;;2.95;0.63;;;;;;;;;;5373325;26;20004;-57
2024/04/14 02:44:30;;;;;;;7.25;1.10;;;;;;;;;;5372874;26;20032;-58
2024/04/14 02:46:57;;;;;;;5.93;1.38;;;;;;;;;;5371621;26;20453;-57
2024/04/14 02:49:26;;;;;;;5.43;0.90;;;;;;;;;;5373206;26;20172;-57
2024/04/14 02:51:52;;;;;;;6.00;1.10;;;;;;;;;;5376638;26;20886;-59
2024/04/14 02:54:19;;;;;;;20.17;3.80;;;;;;;;;;5377095;26;20073;-56
2024/04/14 02:56:45;;;;;;;4.57;2.00;;;;;;;;;;5373321;26;20007;-57
2024/04/14 02:59:12;;;;;;;8.63;1.27;;;;;;;;;;5377231;26;20003;-59
2024/04/14 03:01:39;;;;;;;10.82;1.42;;;;;;;;;;5381947;26;20011;-59
2024/04/14 03:04:06;;;;;;;3.97;1.50;;;;;;;;;;5373177;26;19995;-59
2024/04/14 03:06:32;;;;;;;5.45;3.08;;;;;;;;;;5404236;26;20449;-57
2024/04/14 03:08:59;;;;;;;7.57;1.95;;;;;;;;;;5384891;26;19997;-56
2024/04/14 03:11:26;;;;;;;13.35;1.23;;;;;;;;;;5380006;26;20019;-56
2024/04/14 03:13:53;;;;;;;7.82;1.70;;;;;;;;;;5380281;26;20012;-59
2024/04/14 03:16:19;;;;;;;10.65;1.40;;;;;;;;;;5379966;26;20774;-57
2024/04/14 03:18:49;;;;;;;9.20;1.50;;;;;;;;;;5379002;26;20367;-59
2024/04/14 03:21:15;;;;;;;4.30;0.57;;;;;;;;;;5380463;26;20071;-57
2024/04/14 03:23:42;;;;;;;2.50;0.60;;;;;;;;;;5379212;26;20532;-57
2024/04/14 03:26:08;;;;;;;6.93;0.60;;;;;;;;;;5373873;26;20060;-59
2024/04/14 03:28:35;;;;;;;7.95;0.90;;;;;;;;;;5387783;26;20019;-59
2024/04/14 03:31:03;;;;;;;5.93;1.80;;;;;;;;;;5374441;26;20003;-59
2024/04/14 03:33:30;;;;;;;9.80;0.93;;;;;;;;;;5379426;26;20002;-54
2024/04/14 03:36:01;;;;;;;6.60;1.55;;;;;;;;;;5384123;26;20011;-63
2024/04/14 03:38:28;;;;;;;1.85;0.70;;;;;;;;;;5379675;26;20000;-55
2024/04/14 03:40:54;;;;;;;3.85;0.60;;;;;;;;;;5381304;26;20766;-58
2024/04/14 03:43:21;;;;;;;5.93;1.10;;;;;;;;;;5378747;26;20372;-61
2024/04/14 03:45:48;;;;;;;3.13;0.77;;;;;;;;;;5380618;26;20015;-58
2024/04/14 03:48:14;;;;;;;2.35;0.80;;;;;;;;;;5380245;26;19996;-57
2024/04/14 03:50:41;;;;;;;3.08;0.82;;;;;;;;;;5386751;26;20003;-53
2024/04/14 03:53:07;;;;;;;4.18;0.75;;;;;;;;;;5382508;26;20426;-55
2024/04/14 03:55:34;;;;;;;2.38;0.35;;;;;;;;;;5380367;26;20015;-57
2024/04/14 03:58:01;;;;;;;3.75;0.90;;;;;;;;;;5380866;26;20021;-54
2024/04/14 04:00:27;;;;;;;2.45;0.68;;;;;;;;;;5349966;26;21882;-55
2024/04/14 04:02:54;;;;;;;35.28;2.40;;;;;;;;;;5377438;26;20012;-55
2024/04/14 04:05:20;;;;;;;3.30;0.50;;;;;;;;;;5337671;26;20047;-57
2024/04/14 04:07:48;;;;;;;7.32;2.78;;;;;;;;;;5333909;26;20153;-59
2024/04/14 04:10:14;;;;;;;10.45;1.98;;;;;;;;;;5359246;26;20011;-57
2024/04/14 04:12:42;;;;;;;6.18;1.45;;;;;;;;;;5345429;26;20016;-58
2024/04/14 04:15:10;;;;;;;4.50;1.23;;;;;;;;;;5349092;26;20349;-54
2024/04/14 04:17:36;;;;;;;2.22;1.13;;;;;;;;;;5345477;26;20077;-56
2024/04/14 04:20:04;;;;;;;6.55;0.80;;;;;;;;;;5348227;26;20000;-57
2024/04/14 04:22:32;;;;;;;4.78;1.20;;;;;;;;;;5346440;26;20449;-55
2024/04/14 04:24:58;;;;;;;1.83;0.70;;;;;;;;;;5346552;26;20012;-58
2024/04/14 04:27:25;;;;;;;2.67;0.90;;;;;;;;;;5347600;26;20012;-57
2024/04/14 04:29:51;;;;;;;1.92;0.43;;;;;;;;;;5347531;26;19996;-57
2024/04/14 04:32:18;;;;;;;3.30;0.45;;;;;;;;;;5341399;26;20048;-56
2024/04/14 04:34:45;;;;;;;6.75;0.80;;;;;;;;;;5346060;26;20012;-54
2024/04/14 04:37:13;;;;;;;6.40;0.65;;;;;;;;;;5349570;26;20015;-53
2024/04/14 04:39:40;;;;;;;1.35;0.43;;;;;;;;;;5348062;26;20004;-57
2024/04/14 04:42:07;;;;;;;3.50;0.55;;;;;;;;;;5349290;26;20401;-55
2024/04/14 04:44:34;;;;;;;2.33;0.32;;;;;;;;;;5352837;26;20004;-60
2024/04/14 04:47:01;;;;;;;2.55;0.70;;;;;;;;;;5354448;26;20015;-56
2024/04/14 04:49:28;;;;;;;0.20;0.20;;;;;;;;;;5349579;26;20027;-58
2024/04/14 04:51:54;;;;;;;1.75;0.55;;;;;;;;;;5349077;26;20643;-58
2024/04/14 04:54:21;;;;;;;6.57;1.15;;;;;;;;;;5348518;26;19996;-59
2024/04/14 04:56:48;;;;;;;4.05;0.52;;;;;;;;;;5347571;26;20000;-57
2024/04/14 04:59:14;;;;;;;6.75;0.55;;;;;;;;;;5349116;26;20055;-57
2024/04/14 05:01:41;;;;;;;3.33;0.60;;;;;;;;;;5345076;26;21312;-57
2024/04/14 05:04:08;;;;;;;5.03;0.57;;;;;;;;;;5348762;26;20008;-55
2024/04/14 05:06:35;;;;;;;3.00;0.60;;;;;;;;;;5339721;26;20008;-57
2024/04/14 05:09:01;;;;;;;0.43;0.30;;;;;;;;;;5340655;26;20055;-56
2024/04/14 05:11:28;;;;;;;1.15;0.38;;;;;;;;;;5371914;26;20012;-62
2024/04/14 05:13:54;;;;;;;3.95;0.47;;;;;;;;;;5348221;26;20008;-57
2024/04/14 05:16:22;;;;;;;2.58;0.60;;;;;;;;;;5347574;26;19997;-57
2024/04/14 05:18:49;;;;;;;4.32;0.50;;;;;;;;;;5345320;26;20012;-56
2024/04/14 05:21:16;;;;;;;1.85;0.40;;;;;;;;;;5347364;26;20011;-55
2024/04/14 05:23:42;;;;;;;2.35;0.50;;;;;;;;;;5346178;26;20456;-56
2024/04/14 05:26:09;;;;;;;1.00;0.70;;;;;;;;;;5351327;26;20081;-56
2024/04/14 05:28:35;;;;;;;1.65;0.60;;;;;;;;;;5365893;26;21025;-55
2024/04/14 05:31:02;;;;;;;1.15;0.50;;;;;;;;;;5348318;26;20143;-56
2024/04/14 05:33:29;;;;;;;3.33;0.70;;;;;;;;;;5347477;26;20012;-57
2024/04/14 05:35:56;;;;;;;3.17;1.10;;;;;;;;;;5340963;26;20001;-57
2024/04/14 05:38:23;;;;;;;4.00;0.70;;;;;;;;;;5340539;26;20008;-58
2024/04/14 05:40:50;;;;;;;4.57;0.82;;;;;;;;;;5345911;26;19997;-57
2024/04/14 05:43:16;;;;;;;9.30;3.88;;;;;;;;;;5355170;26;20029;-58
2024/04/14 05:45:43;;;;;;;5.90;2.22;;;;;;;;;;5343749;26;20019;-61
2024/04/14 05:48:10;;;;;;;4.63;0.70;;;;;;;;;;5346813;26;20015;-57
2024/04/14 05:50:36;;;;;;;0.90;0.40;;;;;;;;;;5347715;26;20005;-57
2024/04/14 05:53:04;;;;;;;0.85;0.35;;;;;;;;;;5338855;26;20058;-56
2024/04/14 05:55:31;;;;;;;3.30;0.80;;;;;;;;;;5372636;26;20015;-56
2024/04/14 05:57:58;;;;;;;3.38;0.85;;;;;;;;;;5345192;26;20023;-55
2024/04/14 06:00:25;;;;;;;2.83;0.70;;;;;;;;;;5331039;26;20016;-58
2024/04/14 06:03:11;;;;;;;2.00;0.68;;;;;;;;;;5358501;26;20003;-54
2024/04/14 06:05:39;;;;;;;15.57;1.70;;;;;;;;;;5391386;26;20452;-55
2024/04/14 06:08:06;;;;;;;2.78;0.60;;;;;;;;;;5389557;26;20014;-57
2024/04/14 06:10:33;;;;;;;5.47;0.90;;;;;;;;;;5390553;26;20008;-55
2024/04/14 06:13:00;;;;;;;1.92;0.82;;;;;;;;;;5391484;26;20491;-57
2024/04/14 06:15:27;;;;;;;5.00;0.88;;;;;;;;;;5390352;26;20022;-57
2024/04/14 06:17:53;;;;;;;0.45;0.32;;;;;;;;;;5390376;26;21353;-59
2024/04/14 06:20:20;;;;;;;3.70;0.57;;;;;;;;;;5383055;26;20015;-57
2024/04/14 06:22:46;;;;;;;4.00;1.58;;;;;;;;;;5365711;26;20084;-57
2024/04/14 06:25:13;;;;;;;4.15;0.70;;;;;;;;;;5391884;26;20036;-54
2024/04/14 06:27:40;;;;;;;3.45;0.88;;;;;;;;;;5390449;26;20015;-54
2024/04/14 06:30:07;;;;;;;1.52;0.60;;;;;;;;;;5392955;26;20527;-58
2024/04/14 06:32:33;;;;;;;2.90;0.88;;;;;;;;;;5356659;26;20011;-59
2024/04/14 06:35:00;;;;;;;2.55;0.55;;;;;;;;;;5391259;26;20018;-57
2024/04/14 06:37:26;;;;;;;1.85;0.30;;;;;;;;;;5390731;26;20456;-55
2024/04/14 06:39:53;;;;;;;11.55;0.93;;;;;;;;;;5384004;26;20001;-56
2024/04/14 06:42:19;;;;;;;0.47;0.47;;;;;;;;;;5346148;26;21074;-57
2024/04/14 06:44:46;;;;;;;0.68;0.50;;;;;;;;;;5345841;26;20020;-55
2024/04/14 06:47:13;;;;;;;0.40;0.38;;;;;;;;;;5343965;26;20005;-57
2024/04/14 06:49:39;;;;;;;1.58;0.47;;;;;;;;;;5345963;26;20000;-55
2024/04/14 06:52:06;;;;;;;2.80;0.57;;;;;;;;;;5346992;26;20060;-55
2024/04/14 06:54:33;;;;;;;1.15;0.60;;;;;;;;;;5353861;26;20720;-57
2024/04/14 06:57:19;;;;;;;1.90;0.65;;;;;;;;;;5353140;26;20012;-57
2024/04/14 06:59:46;;;;;;;1.98;0.50;;;;;;;;;;5345425;26;20084;-57
2024/04/14 07:02:14;;;;;;;1.88;0.40;;;;;;;;;;5353566;26;20016;-56
2024/04/14 07:04:41;;;;;;;7.30;0.70;;;;;;;;;;5353355;26;20024;-55
2024/04/14 07:07:07;;;;;;;1.00;0.47;;;;;;;;;;5350686;26;20052;-56
2024/04/14 07:09:35;;;;;;;3.42;0.60;;;;;;;;;;5351489;26;20004;-59
2024/04/14 07:12:02;;;;;;;3.88;0.35;;;;;;;;;;5322548;26;20066;-57
2024/04/14 07:14:29;;;;;;;1.88;0.40;;;;;;;;;;5342921;26;19996;-59
2024/04/14 07:16:56;;;;;;;2.65;0.50;;;;;;;;;;5346335;26;20070;-57
2024/04/14 07:19:23;;;;;;;2.20;0.35;;;;;;;;;;5353783;26;20011;-58
2024/04/14 07:21:49;;;;;;;0.65;0.30;;;;;;;;;;5317005;26;20012;-54
2024/04/14 07:24:16;;;;;;;2.88;0.30;;;;;;;;;;5353302;26;20008;-54
2024/04/14 07:26:42;;;;;;;1.17;0.38;;;;;;;;;;5319929;26;20462;-56
2024/04/14 07:29:09;;;;;;;1.85;0.63;;;;;;;;;;5355942;26;20780;-53
2024/04/14 07:31:36;;;;;;;1.52;0.50;;;;;;;;;;5352572;26;20000;-58
2024/04/14 07:34:03;;;;;;;1.38;0.30;;;;;;;;;;5360492;26;20105;-59
2024/04/14 07:36:30;;;;;;;0.57;0.47;;;;;;;;;;5379069;26;20000;-56
2024/04/14 07:38:56;;;;;;;0.38;0.38;;;;;;;;;;5380130;26;20480;-57
2024/04/14 07:41:23;;;;;;;2.65;0.43;;;;;;;;;;5378706;26;19996;-59
2024/04/14 07:43:51;;;;;;;2.25;0.40;;;;;;;;;;5381851;26;20018;-55
2024/04/14 07:46:18;;;;;;;8.63;0.70;;;;;;;;;;5386391;26;20007;-55
2024/04/14 07:48:45;;;;;;;1.50;0.57;;;;;;;;;;5384079;26;20014;-59
2024/04/14 07:51:12;;;;;;;3.15;0.60;;;;;;;;;;5372049;26;20035;-55
2024/04/14 07:53:38;;;;;;;3.25;0.57;;;;;;;;;;5375923;26;20007;-56
2024/04/14 07:56:05;;;;;;;1.95;0.73;;;;;;;;;;5383087;26;20326;-56
2024/04/14 07:58:32;;;;;;;1.60;0.70;;;;;;;;;;5384045;26;20448;-54
2024/04/14 08:00:59;;;;;;;2.25;0.40;;;;;;;;;;5384401;26;20031;-57
2024/04/14 08:03:25;;;;;;;1.75;0.40;;;;;;;;;;5384101;26;20011;-55
2024/04/14 08:05:52;;;;;;;2.40;0.60;;;;;;;;;;5384676;26;20448;-57
2024/04/14 08:08:18;;;;;;;2.58;0.95;;;;;;;;;;5386391;26;20010;-58
2024/04/14 08:10:45;;;;;;;2.25;0.47;;;;;;;;;;5381182;26;20016;-56
2024/04/14 08:13:12;;;;;;;7.93;0.73;;;;;;;;;;5383635;26;20019;-58
2024/04/14 08:15:38;;;;;;;1.02;0.50;;;;;;;;;;5384646;26;20046;-56
2024/04/14 08:18:05;;;;;;;7.80;0.73;;;;;;;;;;5385973;26;20036;-55
2024/04/14 08:20:32;;;;;;;3.15;0.70;;;;;;;;;;5383110;26;20004;-58
2024/04/14 08:22:58;;;;;;;1.80;0.50;;;;;;;;;;5382692;26;20436;-57
2024/04/14 08:25:25;;;;;;;7.70;1.10;;;;;;;;;;5384659;26;20041;-53
2024/04/14 08:27:51;;;;;;;1.90;0.63;;;;;;;;;;5382284;26;20110;-57
2024/04/14 08:30:18;;;;;;;6.28;1.20;;;;;;;;;;5380697;26;20000;-56
2024/04/14 08:32:45;;;;;;;6.53;0.43;;;;;;;;;;5382803;26;20047;-56
2024/04/14 08:35:11;;;;;;;1.98;0.60;;;;;;;;;;5386540;26;20876;-53
2024/04/14 08:37:39;;;;;;;7.03;0.70;;;;;;;;;;5411742;26;20000;-57
2024/04/14 08:40:06;;;;;;;0.98;0.52;;;;;;;;;;5381898;26;20456;-55
2024/04/14 08:42:34;;;;;;;3.35;0.70;;;;;;;;;;5392683;26;20021;-57
2024/04/14 08:45:02;;;;;;;2.00;0.65;;;;;;;;;;5395937;26;20000;-54
2024/04/14 08:47:29;;;;;;;3.33;0.60;;;;;;;;;;5381054;26;20014;-57
2024/04/14 08:49:57;;;;;;;1.15;0.45;;;;;;;;;;5384296;26;20000;-53
2024/04/14 08:52:25;;;;;;;2.78;0.73;;;;;;;;;;5382623;26;20031;-61
2024/04/14 08:54:51;;;;;;;3.00;0.65;;;;;;;;;;5382383;26;20015;-57
2024/04/14 08:57:19;;;;;;;1.30;0.80;;;;;;;;;;5383317;26;20003;-54
2024/04/14 08:59:46;;;;;;;3.20;0.65;;;;;;;;;;5381204;26;20014;-55
2024/04/14 09:02:14;;;;;;;12.55;1.55;;;;;;;;;;5403207;26;20087;-53
2024/04/14 09:04:42;;;;;;;14.20;1.52;;;;;;;;;;5382470;26;20023;-54
2024/04/14 09:07:10;;;;;;;8.13;2.88;;;;;;;;;;5381059;26;20003;-54
2024/04/14 09:09:37;;;;;;;7.20;1.02;;;;;;;;;;5410500;26;21078;-57
2024/04/14 09:12:03;;;;;;;4.00;1.17;;;;;;;;;;5385102;26;20012;-55
2024/04/14 09:14:30;;;;;;;1.30;0.80;;;;;;;;;;5382958;26;20003;-58
2024/04/14 09:16:57;;;;;;;1.80;0.70;;;;;;;;;;5380335;26;20019;-55
2024/04/14 09:19:23;;;;;;;6.15;1.25;;;;;;;;;;5381490;26;19995;-58
2024/04/14 09:21:50;;;;;;;5.40;1.00;;;;;;;;;;5377993;26;20010;-57
2024/04/14 09:24:17;;;;;;;5.13;0.95;;;;;;;;;;5385478;26;20344;-55
2024/04/14 09:26:44;;;;;;;5.07;1.08;;;;;;;;;;5381220;26;20012;-58
2024/04/14 09:29:11;;;;;;;3.30;0.70;;;;;;;;;;5385071;26;20011;-53
2024/04/14 09:31:38;;;;;;;5.38;0.95;;;;;;;;;;5383536;26;20620;-56
2024/04/14 09:34:05;;;;;;;1.80;1.02;;;;;;;;;;5383077;26;20734;-54
2024/04/14 09:36:31;;;;;;;3.33;0.65;;;;;;;;;;5382678;26;20007;-58
2024/04/14 09:39:00;;;;;;;3.80;1.35;;;;;;;;;;5384975;26;20053;-57
2024/04/14 09:41:27;;;;;;;1.42;0.47;;;;;;;;;;5381254;26;20030;-57
2024/04/14 09:43:56;;;;;;;1.52;0.95;;;;;;;;;;5383712;26;20614;-52
2024/04/14 09:46:24;;;;;;;1.70;0.60;;;;;;;;;;5382263;26;20007;-57
2024/04/14 09:48:50;;;;;;;0.88;0.50;;;;;;;;;;5380918;26;19995;-54
2024/04/14 09:51:18;;;;;;;3.78;1.17;;;;;;;;;;5390716;26;20045;-57
2024/04/14 09:53:45;;;;;;;3.22;1.00;;;;;;;;;;5376549;26;20011;-52
2024/04/14 09:56:12;;;;;;;4.15;0.57;;;;;;;;;;5387978;26;20004;-53
2024/04/14 09:58:39;;;;;;;3.75;0.88;;;;;;;;;;5383042;26;20030;-57
2024/04/14 10:01:09;;;;;;;2.47;0.63;;;;;;;;;;5379692;26;20442;-58
2024/04/14 10:03:37;;;;;;;2.10;0.73;;;;;;;;;;5384086;26;20061;-57
2024/04/14 10:06:04;;;;;;;8.20;0.75;;;;;;;;;;5377675;26;20314;-57
2024/04/14 10:08:33;;;;;;;2.95;0.70;;;;;;;;;;5379613;26;20018;-58
2024/04/14 10:11:04;;;;;;;2.88;0.75;;;;;;;;;;5384906;26;20015;-55
2024/04/14 10:13:30;;;;;;;2.67;0.60;;;;;;;;;;5382911;26;20023;-58
2024/04/14 10:15:58;;;;;;;1.60;0.80;;;;;;;;;;5385257;26;20016;-60
2024/04/14 10:18:27;;;;;;;5.53;0.77;;;;;;;;;;5377960;26;20484;-56
2024/04/14 10:20:58;;;;;;;2.55;0.80;;;;;;;;;;5383229;26;20034;-58
2024/04/14 10:23:25;;;;;;;3.97;0.70;;;;;;;;;;5384747;26;20019;-58
2024/04/14 10:25:52;;;;;;;3.55;0.82;;;;;;;;;;5383071;26;20005;-55
2024/04/14 10:28:21;;;;;;;1.48;0.80;;;;;;;;;;5382227;26;20745;-57
2024/04/14 10:30:49;;;;;;;3.50;0.85;;;;;;;;;;5391359;26;20002;-56
2024/04/14 10:33:22;;;;;;;3.47;1.13;;;;;;;;;;5386347;26;19996;-55
2024/04/14 10:36:00;;;;;;;5.38;0.93;;;;;;;;;;5387820;26;20002;-58
2024/04/14 10:38:27;;;;;;;3.80;1.35;;;;;;;;;;5397025;26;20742;-57
2024/04/14 10:40:55;;;;;;;3.33;1.10;;;;;;;;;;5384361;26;20076;-59
2024/04/14 10:43:24;;;;;;;5.80;1.08;;;;;;;;;;5385661;26;20489;-57
2024/04/14 10:45:51;;;;;;;3.42;0.77;;;;;;;;;;5385777;26;19996;-52
2024/04/14 10:48:17;;;;;;;4.25;0.90;;;;;;;;;;5387028;26;20008;-60
2024/04/14 10:50:44;;;;;;;5.13;0.80;;;;;;;;;;5385029;26;20697;-59
2024/04/14 10:53:11;;;;;;;3.15;0.70;;;;;;;;;;5385703;26;20007;-61
2024/04/14 10:55:38;;;;;;;3.17;0.90;;;;;;;;;;5379764;26;20007;-59
2024/04/14 10:58:05;;;;;;;2.22;0.90;;;;;;;;;;5384410;26;20011;-58
2024/04/14 11:00:51;;;;;;;8.10;0.95;;;;;;;;;;5378632;26;20023;-56
2024/04/14 11:03:18;;;;;;;1.38;0.85;;;;;;;;;;5371689;26;20007;-57
2024/04/14 11:05:45;;;;;;;4.40;0.60;;;;;;;;;;5378999;26;22287;-55
2024/04/14 11:08:11;;;;;;;8.18;1.15;;;;;;;;;;5385082;26;20000;-56
2024/04/14 11:10:38;;;;;;;1.70;0.80;;;;;;;;;;5381437;26;20006;-55
2024/04/14 11:13:05;;;;;;;7.63;0.80;;;;;;;;;;5331288;26;20040;-57
2024/04/14 11:15:32;;;;;;;4.25;0.90;;;;;;;;;;5378495;26;20011;-53
2024/04/14 11:17:59;;;;;;;2.97;1.20;;;;;;;;;;5382508;26;20010;-66
2024/04/14 11:20:26;;;;;;;4.45;0.63;;;;;;;;;;5343375;26;20012;-52
2024/04/14 11:22:52;;;;;;;2.47;0.85;;;;;;;;;;5360007;26;20019;-58
2024/04/14 11:25:20;;;;;;;2.53;0.77;;;;;;;;;;5384755;26;20022;-61
2024/04/14 11:27:46;;;;;;;1.95;0.70;;;;;;;;;;5385518;26;20007;-55
2024/04/14 11:30:13;;;;;;;1.95;0.60;;;;;;;;;;5361629;26;20440;-57
2024/04/14 11:32:40;;;;;;;1.60;0.52;;;;;;;;;;5376291;26;20715;-61
2024/04/14 11:35:08;;;;;;;1.27;0.50;;;;;;;;;;5367524;26;20000;-57
2024/04/14 11:37:36;;;;;;;2.20;1.05;;;;;;;;;;5383045;26;20019;-55
2024/04/14 11:40:04;;;;;;;2.10;0.85;;;;;;;;;;5384970;26;20789;-55
2024/04/14 11:42:31;;;;;;;1.77;0.70;;;;;;;;;;5383437;26;20448;-57
2024/04/14 11:44:59;;;;;;;1.48;0.60;;;;;;;;;;5387080;26;19997;-59
2024/04/14 11:47:27;;;;;;;3.28;1.40;;;;;;;;;;5382543;26;20000;-56
2024/04/14 11:49:54;;;;;;;3.58;0.40;;;;;;;;;;5386266;26;20020;-57
2024/04/14 11:52:21;;;;;;;1.75;0.70;;;;;;;;;;5384714;26;20003;-57
2024/04/14 11:54:48;;;;;;;3.60;0.75;;;;;;;;;;5386089;26;20020;-56
2024/04/14 11:57:15;;;;;;;0.20;0.20;;;;;;;;;;5385642;26;20106;-57
2024/04/14 11:59:42;;;;;;;0.98;0.70;;;;;;;;;;5384364;26;20090;-58
2024/04/14 12:02:08;;;;;;;1.35;1.15;;;;;;;;;;5382734;26;20054;-56
2024/04/14 12:04:35;;;;;;;2.13;0.43;;;;;;;;;;5384421;26;20014;-54
2024/04/14 12:07:02;;;;;;;2.10;0.43;;;;;;;;;;5385756;26;19996;-58
2024/04/14 12:09:28;;;;;;;1.02;0.80;;;;;;;;;;5383693;26;20007;-58
2024/04/14 12:11:55;;;;;;;4.72;0.90;;;;;;;;;;5383580;26;20018;-53
2024/04/14 12:14:22;;;;;;;1.90;0.80;;;;;;;;;;5384492;26;20410;-59
2024/04/14 12:16:48;;;;;;;5.35;1.13;;;;;;;;;;5383685;26;20044;-55
2024/04/14 12:19:15;;;;;;;4.78;0.70;;;;;;;;;;5384241;26;20000;-56
2024/04/14 12:21:41;;;;;;;0.98;0.47;;;;;;;;;;5382166;26;20329;-56
2024/04/14 12:24:08;;;;;;;2.90;1.00;;;;;;;;;;5358489;26;20025;-54
2024/04/14 12:26:35;;;;;;;5.38;1.20;;;;;;;;;;5357016;26;20012;-52
2024/04/14 12:29:02;;;;;;;1.92;0.93;;;;;;;;;;5357460;26;20008;-55
2024/04/14 12:31:28;;;;;;;1.65;1.17;;;;;;;;;;5356550;26;20011;-58
2024/04/14 12:34:15;;;;;;;1.67;1.00;;;;;;;;;;5278297;26;20006;-55
2024/04/14 12:36:41;;;;;;;2.63;0.77;;;;;;;;;;5277861;26;20017;-63
2024/04/14 12:39:08;;;;;;;3.92;1.00;;;;;;;;;;5278818;26;20010;-57
2024/04/14 12:41:34;;;;;;;1.98;0.65;;;;;;;;;;5276713;26;20025;-55
2024/04/14 12:44:01;;;;;;;2.72;0.60;;;;;;;;;;5276907;26;20126;-57
2024/04/14 12:46:28;;;;;;;1.25;0.60;;;;;;;;;;5277919;26;20636;-56
2024/04/14 12:48:54;;;;;;;6.10;0.98;;;;;;;;;;5280010;26;20007;-56
2024/04/14 12:51:21;;;;;;;2.50;0.80;;;;;;;;;;5278560;26;20046;-58
2024/04/14 12:53:47;;;;;;;0.93;0.70;;;;;;;;;;5281435;26;20583;-55
2024/04/14 12:56:14;;;;;;;2.88;0.93;;;;;;;;;;5279185;26;20008;-58
2024/04/14 12:58:41;;;;;;;1.13;0.75;;;;;;;;;;5280350;26;20402;-55
2024/04/14 13:01:08;;;;;;;3.47;1.40;;;;;;;;;;5289035;26;20571;-54
2024/04/14 13:03:34;;;;;;;2.72;1.40;;;;;;;;;;5309609;26;20072;-56
2024/04/14 13:06:01;;;;;;;3.13;0.90;;;;;;;;;;5320845;26;20009;-56
2024/04/14 13:08:28;;;;;;;3.65;1.08;;;;;;;;;;5316337;26;20103;-57
2024/04/14 13:10:55;;;;;;;3.70;0.75;;;;;;;;;;5322458;26;20011;-58
2024/04/14 13:13:21;;;;;;;6.28;1.33;;;;;;;;;;5380390;26;20352;-57
2024/04/14 13:15:48;;;;;;;1.85;1.00;;;;;;;;;;5381113;26;20034;-57
2024/04/14 13:18:14;;;;;;;1.20;0.80;;;;;;;;;;5385652;26;20004;-56
2024/04/14 13:20:41;;;;;;;3.38;0.90;;;;;;;;;;5414001;26;20036;-54
2024/04/14 13:23:07;;;;;;;1.60;0.70;;;;;;;;;;5382473;26;20092;-53
2024/04/14 13:25:34;;;;;;;5.25;0.93;;;;;;;;;;5384806;26;20956;-59
2024/04/14 13:28:02;;;;;;;2.83;0.85;;;;;;;;;;5391960;26;20035;-58
2024/04/14 13:30:29;;;;;;;4.13;1.25;;;;;;;;;;5386832;26;20020;-57
2024/04/14 13:32:55;;;;;;;2.15;1.10;;;;;;;;;;5383126;26;20080;-53
2024/04/14 13:35:22;;;;;;;0.50;0.45;;;;;;;;;;5385540;26;19992;-54
2024/04/14 13:37:49;;;;;;;2.80;1.13;;;;;;;;;;5382571;26;20420;-59
2024/04/14 13:40:16;;;;;;;2.80;0.85;;;;;;;;;;5411581;26;20000;-52
2024/04/14 13:42:42;;;;;;;1.10;0.90;;;;;;;;;;5380785;26;20023;-52
2024/04/14 13:45:09;;;;;;;6.35;1.00;;;;;;;;;;5383711;26;20019;-56
2024/04/14 13:47:35;;;;;;;4.43;1.20;;;;;;;;;;5388506;26;19999;-59
2024/04/14 13:50:02;;;;;;;3.35;0.90;;;;;;;;;;5382234;26;20110;-55
2024/04/14 13:52:29;;;;;;;3.15;0.73;;;;;;;;;;5380844;26;20004;-57
2024/04/14 13:54:58;;;;;;;7.97;1.00;;;;;;;;;;5392809;26;19996;-55
2024/04/14 13:57:26;;;;;;;3.92;0.90;;;;;;;;;;5380717;26;20067;-55
2024/04/14 13:59:53;;;;;;;6.00;0.93;;;;;;;;;;5378254;26;19995;-55
2024/04/14 14:02:19;;;;;;;3.85;1.05;;;;;;;;;;5383247;26;20007;-54
2024/04/14 14:04:46;;;;;;;2.03;0.73;;;;;;;;;;5380272;26;20004;-52
2024/04/14 14:07:13;;;;;;;0.85;0.75;;;;;;;;;;5385622;26;20102;-56
2024/04/14 14:09:40;;;;;;;2.00;0.90;;;;;;;;;;5379462;26;20003;-59
2024/04/14 14:12:07;;;;;;;0.70;0.60;;;;;;;;;;5382893;26;20019;-52
2024/04/14 14:14:34;;;;;;;5.68;1.33;;;;;;;;;;5380546;26;20025;-59
2024/04/14 14:17:00;;;;;;;3.72;1.30;;;;;;;;;;5380842;26;20031;-55
2024/04/14 14:19:27;;;;;;;2.25;0.95;;;;;;;;;;5380450;26;20051;-56
2024/04/14 14:21:53;;;;;;;2.40;1.13;;;;;;;;;;5381431;26;20036;-57
2024/04/14 14:24:20;;;;;;;1.63;0.82;;;;;;;;;;5383612;26;21103;-56
2024/04/14 14:26:47;;;;;;;1.52;0.77;;;;;;;;;;5382382;26;20011;-58
2024/04/14 14:29:13;;;;;;;3.40;0.90;;;;;;;;;;5378833;26;20010;-56
2024/04/14 14:31:41;;;;;;;3.65;0.82;;;;;;;;;;5381002;26;20015;-56
2024/04/14 14:36:53;;;;;;;1.25;0.80;;;;;;;;;;5380514;26;20011;-57
2024/04/14 14:39:20;;;;;;;0.93;0.63;;;;;;;;;;5382370;26;20008;-57
2024/04/14 14:41:46;;;;;;;1.40;0.65;;;;;;;;;;5369733;26;20019;-58
2024/04/14 14:44:13;;;;;;;3.00;0.85;;;;;;;;;;5389845;26;20005;-57